F/V Cote D'ambre — FPEY — position and weather

sailwx.info

Track history (hours):
 
Tides and Currents Weather Stations Pressure Air Temp Water Temp Dewpoint Dewpoint Depression Visibility Wind Speed Wind Dir Waves Ship Positions

F/V Cote D'ambre

Last reported at 2016-May-06 20:33 UTC. Time now 2016-May-06 20:36 UTC.
Position N 47°44' W 003°22'.

Length 16 m; draft 4 m.

Type: Fishing. MMSI: 227128800.

Date/timePositionNaut miles runAvg speedWind from/ knotsBaromVisibWave heightAir tempDewpointWater temp
2016-May-06 20:33N 47°44' W 003°22'8 7.9
2016-May-06 19:33N 47°36' W 003°22'8 8.2
2016-May-06 18:33N 47°28' W 003°27'6 5.5
2016-May-06 17:33N 47°24' W 003°31'1 0.8
2016-May-06 16:33N 47°24' W 003°32'3 3.0
2016-May-06 15:33N 47°24' W 003°27'1 1.5
2016-May-06 14:33N 47°25' W 003°29'3 2.8
2016-May-06 13:33N 47°24' W 003°33'3 2.9
2016-May-06 12:34N 47°24' W 003°28'2 1.7
2016-May-06 11:33N 47°25' W 003°27'3 3.1
2016-May-06 10:33N 47°24' W 003°32'2 1.8
2016-May-06 09:33N 47°24' W 003°29'2 2.4
2016-May-06 08:33N 47°25' W 003°27'3 3.2
2016-May-06 07:33N 47°23' W 003°30'1 1.3
2016-May-06 06:33N 47°22' W 003°29'3 2.7
2016-May-06 05:33N 47°24' W 003°26'2 2.4
2016-May-06 04:33N 47°25' W 003°29'1 1.4
2016-May-06 03:31N 47°25' W 003°31'1 0.6
2016-May-06 02:31N 47°25' W 003°31'0 0.5
2016-May-06 01:31N 47°25' W 003°30'1 1.6
2016-May-06 00:33N 47°27' W 003°29'6 5.9
2016-May-05 23:33N 47°32' W 003°25'6 5.5
2016-May-05 22:33N 47°37' W 003°22'6 6.4
2016-May-05 21:33N 47°44' W 003°22'0 0.2
2016-May-05 20:31N 47°44' W 003°22'6 6.6
2016-May-05 19:34N 47°37' W 003°22'8 7.7
2016-May-05 18:33N 47°30' W 003°23'8 8.3
2016-May-05 17:33N 47°22' W 003°25'2 2.2
2016-May-05 16:33N 47°22' W 003°28'0 0.1
2016-May-05 15:33N 47°22' W 003°28'1 1.0
2016-May-05 14:33N 47°23' W 003°28'1 1.4
2016-May-05 13:33N 47°21' W 003°29'1 1.5
2016-May-05 12:33N 47°23' W 003°29'1 0.9
2016-May-05 11:33N 47°22' W 003°29'1 0.6
2016-May-05 10:33N 47°22' W 003°28'1 1.2
2016-May-05 09:33N 47°23' W 003°29'2 2.2
2016-May-05 08:33N 47°21' W 003°27'2 2.1
2016-May-05 07:33N 47°23' W 003°29'1 1.2
2016-May-05 06:33N 47°22' W 003°29'2 2.5
2016-May-05 05:33N 47°24' W 003°26'2 2.3
2016-May-05 04:33N 47°25' W 003°29'7 7.3
2016-May-05 03:33N 47°32' W 003°25'9 8.6
2016-May-05 02:33N 47°40' W 003°22'4 3.5
2016-May-05 01:32N 47°44' W 003°22'0 0.0
2016-May-05 00:32N 47°44' W 003°22'2 2.4
2016-May-04 23:33N 47°41' W 003°22'22 2.4
2016-May-04 14:22N 47°20' W 003°32'3 3.4
2016-May-04 13:33N 47°20' W 003°28'4 3.6
2016-May-04 12:33N 47°17' W 003°24'3 3.1
2016-May-04 11:33N 47°15' W 003°22'3 2.4
2016-May-04 10:30N 47°12' W 003°20'3 3.1
2016-May-04 09:33N 47°15' W 003°22'12 2.3
2016-May-04 04:30N 47°26' W 003°29'7 7.7
2016-May-04 03:33N 47°32' W 003°24'8 8.2
2016-May-04 02:33N 47°40' W 003°22'4 3.3
2016-May-04 01:28N 47°44' W 003°22'0 0.0
2016-May-04 00:31N 47°44' W 003°22'3 2.8
2016-May-03 23:33N 47°41' W 003°22'8 8.0
2016-May-03 22:32N 47°33' W 003°23'2 1.7
2016-May-03 21:31N 47°31' W 003°24'5 5.0
2016-May-03 20:33N 47°27' W 003°27'6 1.2
2016-May-03 15:12N 47°21' W 003°27'1 1.5
2016-May-03 14:33N 47°21' W 003°26'3 3.1
2016-May-03 13:32N 47°19' W 003°23'3 3.2
2016-May-03 12:34N 47°16' W 003°22'3 2.7
2016-May-03 11:34N 47°13' W 003°22'1 0.5
2016-May-03 10:10N 47°14' W 003°21'2 3.3
2016-May-03 09:33N 47°16' W 003°23'4 4.4
2016-May-03 08:33N 47°19' W 003°27'3 1.4
2016-May-03 06:30N 47°20' W 003°31'3 3.1
2016-May-03 05:34N 47°23' W 003°28'4 3.5
2016-May-03 04:34N 47°26' W 003°29'6 6.3
2016-May-03 03:33N 47°32' W 003°25'8 8.0
2016-May-03 02:33N 47°40' W 003°22'4 4.1
2016-May-03 01:33N 47°44' W 003°22'0 0.0
2016-May-03 00:33N 47°44' W 003°22'6 6.0
2016-May-02 23:33N 47°38' W 003°22'7 7.0
2016-May-02 22:33N 47°31' W 003°25'4 4.0
2016-May-02 21:33N 47°28' W 003°28'1 0.6
2016-May-02 20:33N 47°28' W 003°29'3 3.0
2016-May-02 19:33N 47°25' W 003°29'4 3.6
2016-May-02 18:33N 47°21' W 003°29'2 2.2
2016-May-02 17:33N 47°20' W 003°27'4 3.8
2016-May-02 16:33N 47°18' W 003°22'3 3.3
2016-May-02 15:33N 47°16' W 003°19'3 2.6
2016-May-02 14:33N 47°18' W 003°21'3 2.9
2016-May-02 13:33N 47°19' W 003°25'4 3.6
2016-May-02 12:33N 47°20' W 003°30'3 2.8
2016-May-02 11:33N 47°23' W 003°29'1 1.0
2016-May-02 10:33N 47°22' W 003°29'3 3.3
2016-May-02 09:33N 47°20' W 003°26'1 0.8
2016-May-02 08:33N 47°20' W 003°27'2 2.1
2016-May-02 07:34N 47°21' W 003°29'2 1.8
2016-May-02 06:33N 47°20' W 003°28'3 2.5
2016-May-02 05:33N 47°22' W 003°28'4 3.7
2016-May-02 04:33N 47°26' W 003°29'6 6.3
2016-May-02 03:33N 47°32' W 003°25'8 8.1
2016-May-02 02:33N 47°40' W 003°22'  
2016-Apr-29 22:31N 47°44' W 003°22'0 0.1
2016-Apr-29 21:33N 47°44' W 003°22'0 0.1
2016-Apr-29 20:32N 47°44' W 003°22'0 0.0
2016-Apr-29 19:32N 47°44' W 003°22'7 6.9
2016-Apr-29 18:33N 47°37' W 003°22'8 7.5
2016-Apr-29 17:33N 47°30' W 003°24'6 6.3
2016-Apr-29 16:33N 47°23' W 003°26'2 2.4
2016-Apr-29 15:33N 47°22' W 003°28'2 1.7
2016-Apr-29 14:33N 47°20' W 003°28'1 0.9
2016-Apr-29 13:33N 47°20' W 003°30'4 3.3
2016-Apr-29 12:28N 47°19' W 003°24'1 1.2
2016-Apr-29 11:33N 47°18' W 003°24'3 3.2
2016-Apr-29 10:33N 47°17' W 003°19'1 1.1
2016-Apr-29 09:33N 47°16' W 003°18'3 3.5
2016-Apr-29 08:33N 47°18' W 003°22'3 2.9
2016-Apr-29 07:33N 47°20' W 003°26'4 3.4
2016-Apr-29 06:25N 47°21' W 003°31'3 3.0
2016-Apr-29 05:33N 47°20' W 003°28'5 4.8
2016-Apr-29 04:34N 47°24' W 003°26'8 7.8
2016-Apr-29 03:33N 47°32' W 003°23'8 8.0
2016-Apr-29 02:34N 47°40' W 003°22'4 3.6
2016-Apr-29 01:32N 47°44' W 003°22'0 0.2
2016-Apr-29 00:33N 47°44' W 003°22'6 5.8
2016-Apr-28 23:34N 47°38' W 003°22'8 7.6
2016-Apr-28 22:33N 47°31' W 003°24'8 7.6
2016-Apr-28 21:33N 47°23' W 003°27'7 7.3
2016-Apr-28 20:33N 47°16' W 003°29'6 5.2
2016-Apr-28 19:22N 47°10' W 003°29'3 3.2
2016-Apr-28 18:18N 47°07' W 003°27'6 0.4
2016-Apr-28 04:15N 47°13' W 003°27'6 8.1
2016-Apr-28 03:33N 47°18' W 003°26'8 8.0
2016-Apr-28 02:33N 47°26' W 003°24'8 8.4
2016-Apr-28 01:33N 47°35' W 003°22'9 8.6
2016-Apr-28 00:33N 47°43' W 003°22'1 0.6
2016-Apr-27 23:31N 47°44' W 003°22'5 5.3
2016-Apr-27 22:33N 47°39' W 003°22'8 7.9
2016-Apr-27 21:34N 47°31' W 003°23'8 7.7
2016-Apr-27 20:34N 47°23' W 003°25'8 7.8
2016-Apr-27 19:33N 47°16' W 003°28'2 0.1
2016-Apr-27 05:17N 47°14' W 003°27'6 8.0
2016-Apr-27 04:34N 47°20' W 003°26'8 8.0
2016-Apr-27 03:33N 47°27' W 003°24'8 8.0
2016-Apr-27 02:33N 47°35' W 003°22'8 8.4
2016-Apr-27 01:34N 47°44' W 003°22'0 0.1
2016-Apr-27 00:33N 47°44' W 003°22'7 7.4
2016-Apr-26 23:33N 47°36' W 003°22'8 7.8
2016-Apr-26 22:33N 47°29' W 003°27'8 7.6
2016-Apr-26 21:33N 47°23' W 003°32'  
Track history (hours):
 
Tides and Currents Weather Stations Pressure Air Temp Water Temp Dewpoint Dewpoint Depression Visibility Wind Speed Wind Dir Waves Ship Positions

F/V Cote D'ambre

Last reported at 2016-May-06 20:33 UTC. Time now 2016-May-06 20:36 UTC.
Position N 47°44' W 003°22'.

Length 16 m; draft 4 m.

Type: Fishing. MMSI: 227128800.

Date/timePositionNaut miles runAvg speedWind from/ knotsBaromVisibWave heightAir tempDewpointWater temp
2016-May-06 20:33N 47°44' W 003°22'8 7.9
2016-May-06 19:33N 47°36' W 003°22'8 8.2
2016-May-06 18:33N 47°28' W 003°27'6 5.5
2016-May-06 17:33N 47°24' W 003°31'1 0.8
2016-May-06 16:33N 47°24' W 003°32'3 3.0
2016-May-06 15:33N 47°24' W 003°27'1 1.5
2016-May-06 14:33N 47°25' W 003°29'3 2.8
2016-May-06 13:33N 47°24' W 003°33'3 2.9
2016-May-06 12:34N 47°24' W 003°28'2 1.7
2016-May-06 11:33N 47°25' W 003°27'3 3.1
2016-May-06 10:33N 47°24' W 003°32'2 1.8
2016-May-06 09:33N 47°24' W 003°29'2 2.4
2016-May-06 08:33N 47°25' W 003°27'3 3.2
2016-May-06 07:33N 47°23' W 003°30'1 1.3
2016-May-06 06:33N 47°22' W 003°29'3 2.7
2016-May-06 05:33N 47°24' W 003°26'2 2.4
2016-May-06 04:33N 47°25' W 003°29'1 1.4
2016-May-06 03:31N 47°25' W 003°31'1 0.6
2016-May-06 02:31N 47°25' W 003°31'0 0.5
2016-May-06 01:31N 47°25' W 003°30'1 1.6
2016-May-06 00:33N 47°27' W 003°29'6 5.9
2016-May-05 23:33N 47°32' W 003°25'6 5.5
2016-May-05 22:33N 47°37' W 003°22'6 6.4
2016-May-05 21:33N 47°44' W 003°22'0 0.2
2016-May-05 20:31N 47°44' W 003°22'6 6.6
2016-May-05 19:34N 47°37' W 003°22'8 7.7
2016-May-05 18:33N 47°30' W 003°23'8 8.3
2016-May-05 17:33N 47°22' W 003°25'2 2.2
2016-May-05 16:33N 47°22' W 003°28'0 0.1
2016-May-05 15:33N 47°22' W 003°28'1 1.0
2016-May-05 14:33N 47°23' W 003°28'1 1.4
2016-May-05 13:33N 47°21' W 003°29'1 1.5
2016-May-05 12:33N 47°23' W 003°29'1 0.9
2016-May-05 11:33N 47°22' W 003°29'1 0.6
2016-May-05 10:33N 47°22' W 003°28'1 1.2
2016-May-05 09:33N 47°23' W 003°29'2 2.2
2016-May-05 08:33N 47°21' W 003°27'2 2.1
2016-May-05 07:33N 47°23' W 003°29'1 1.2
2016-May-05 06:33N 47°22' W 003°29'2 2.5
2016-May-05 05:33N 47°24' W 003°26'2 2.3
2016-May-05 04:33N 47°25' W 003°29'7 7.3
2016-May-05 03:33N 47°32' W 003°25'9 8.6
2016-May-05 02:33N 47°40' W 003°22'4 3.5
2016-May-05 01:32N 47°44' W 003°22'0 0.0
2016-May-05 00:32N 47°44' W 003°22'2 2.4
2016-May-04 23:33N 47°41' W 003°22'22 2.4
2016-May-04 14:22N 47°20' W 003°32'3 3.4
2016-May-04 13:33N 47°20' W 003°28'4 3.6
2016-May-04 12:33N 47°17' W 003°24'3 3.1
2016-May-04 11:33N 47°15' W 003°22'3 2.4
2016-May-04 10:30N 47°12' W 003°20'3 3.1
2016-May-04 09:33N 47°15' W 003°22'12 2.3
2016-May-04 04:30N 47°26' W 003°29'7 7.7
2016-May-04 03:33N 47°32' W 003°24'8 8.2
2016-May-04 02:33N 47°40' W 003°22'4 3.3
2016-May-04 01:28N 47°44' W 003°22'0 0.0
2016-May-04 00:31N 47°44' W 003°22'3 2.8
2016-May-03 23:33N 47°41' W 003°22'8 8.0
2016-May-03 22:32N 47°33' W 003°23'2 1.7
2016-May-03 21:31N 47°31' W 003°24'5 5.0
2016-May-03 20:33N 47°27' W 003°27'6 1.2
2016-May-03 15:12N 47°21' W 003°27'1 1.5
2016-May-03 14:33N 47°21' W 003°26'3 3.1
2016-May-03 13:32N 47°19' W 003°23'3 3.2
2016-May-03 12:34N 47°16' W 003°22'3 2.7
2016-May-03 11:34N 47°13' W 003°22'1 0.5
2016-May-03 10:10N 47°14' W 003°21'2 3.3
2016-May-03 09:33N 47°16' W 003°23'4 4.4
2016-May-03 08:33N 47°19' W 003°27'3 1.4
2016-May-03 06:30N 47°20' W 003°31'3 3.1
2016-May-03 05:34N 47°23' W 003°28'4 3.5
2016-May-03 04:34N 47°26' W 003°29'6 6.3
2016-May-03 03:33N 47°32' W 003°25'8 8.0
2016-May-03 02:33N 47°40' W 003°22'4 4.1
2016-May-03 01:33N 47°44' W 003°22'0 0.0
2016-May-03 00:33N 47°44' W 003°22'6 6.0
2016-May-02 23:33N 47°38' W 003°22'7 7.0
2016-May-02 22:33N 47°31' W 003°25'4 4.0
2016-May-02 21:33N 47°28' W 003°28'1 0.6
2016-May-02 20:33N 47°28' W 003°29'3 3.0
2016-May-02 19:33N 47°25' W 003°29'4 3.6
2016-May-02 18:33N 47°21' W 003°29'2 2.2
2016-May-02 17:33N 47°20' W 003°27'4 3.8
2016-May-02 16:33N 47°18' W 003°22'3 3.3
2016-May-02 15:33N 47°16' W 003°19'3 2.6
2016-May-02 14:33N 47°18' W 003°21'3 2.9
2016-May-02 13:33N 47°19' W 003°25'4 3.6
2016-May-02 12:33N 47°20' W 003°30'3 2.8
2016-May-02 11:33N 47°23' W 003°29'1 1.0
2016-May-02 10:33N 47°22' W 003°29'3 3.3
2016-May-02 09:33N 47°20' W 003°26'1 0.8
2016-May-02 08:33N 47°20' W 003°27'2 2.1
2016-May-02 07:34N 47°21' W 003°29'2 1.8
2016-May-02 06:33N 47°20' W 003°28'3 2.5
2016-May-02 05:33N 47°22' W 003°28'4 3.7
2016-May-02 04:33N 47°26' W 003°29'6 6.3
2016-May-02 03:33N 47°32' W 003°25'8 8.1
2016-May-02 02:33N 47°40' W 003°22'  
2016-Apr-29 22:31N 47°44' W 003°22'0 0.1
2016-Apr-29 21:33N 47°44' W 003°22'0 0.1
2016-Apr-29 20:32N 47°44' W 003°22'0 0.0
2016-Apr-29 19:32N 47°44' W 003°22'7 6.9
2016-Apr-29 18:33N 47°37' W 003°22'8 7.5
2016-Apr-29 17:33N 47°30' W 003°24'6 6.3
2016-Apr-29 16:33N 47°23' W 003°26'2 2.4
2016-Apr-29 15:33N 47°22' W 003°28'2 1.7
2016-Apr-29 14:33N 47°20' W 003°28'1 0.9
2016-Apr-29 13:33N 47°20' W 003°30'4 3.3
2016-Apr-29 12:28N 47°19' W 003°24'1 1.2
2016-Apr-29 11:33N 47°18' W 003°24'3 3.2
2016-Apr-29 10:33N 47°17' W 003°19'1 1.1
2016-Apr-29 09:33N 47°16' W 003°18'3 3.5
2016-Apr-29 08:33N 47°18' W 003°22'3 2.9
2016-Apr-29 07:33N 47°20' W 003°26'4 3.4
2016-Apr-29 06:25N 47°21' W 003°31'3 3.0
2016-Apr-29 05:33N 47°20' W 003°28'5 4.8
2016-Apr-29 04:34N 47°24' W 003°26'8 7.8
2016-Apr-29 03:33N 47°32' W 003°23'8 8.0
2016-Apr-29 02:34N 47°40' W 003°22'4 3.6
2016-Apr-29 01:32N 47°44' W 003°22'0 0.2
2016-Apr-29 00:33N 47°44' W 003°22'6 5.8
2016-Apr-28 23:34N 47°38' W 003°22'8 7.6
2016-Apr-28 22:33N 47°31' W 003°24'8 7.6
2016-Apr-28 21:33N 47°23' W 003°27'7 7.3
2016-Apr-28 20:33N 47°16' W 003°29'6 5.2
2016-Apr-28 19:22N 47°10' W 003°29'3 3.2
2016-Apr-28 18:18N 47°07' W 003°27'6 0.4
2016-Apr-28 04:15N 47°13' W 003°27'6 8.1
2016-Apr-28 03:33N 47°18' W 003°26'8 8.0
2016-Apr-28 02:33N 47°26' W 003°24'8 8.4
2016-Apr-28 01:33N 47°35' W 003°22'9 8.6
2016-Apr-28 00:33N 47°43' W 003°22'1 0.6
2016-Apr-27 23:31N 47°44' W 003°22'5 5.3
2016-Apr-27 22:33N 47°39' W 003°22'8 7.9
2016-Apr-27 21:34N 47°31' W 003°23'8 7.7
2016-Apr-27 20:34N 47°23' W 003°25'8 7.8
2016-Apr-27 19:33N 47°16' W 003°28'2 0.1
2016-Apr-27 05:17N 47°14' W 003°27'6 8.0
2016-Apr-27 04:34N 47°20' W 003°26'8 8.0
2016-Apr-27 03:33N 47°27' W 003°24'8 8.0
2016-Apr-27 02:33N 47°35' W 003°22'8 8.4
2016-Apr-27 01:34N 47°44' W 003°22'0 0.1
2016-Apr-27 00:33N 47°44' W 003°22'7 7.4
2016-Apr-26 23:33N 47°36' W 003°22'8 7.8
2016-Apr-26 22:33N 47°29' W 003°27'8 7.6
2016-Apr-26 21:33N 47°23' W 003°32'  

Dump ship's entire track history